Thunder radar more information blitzortung!


Radar de pluja more information rain snow radar


Visita la nostra xarxa de llocs de meteo:

Template documentation
and downloads

And another site



No particular awareness of the weather is required.    There are no Weather-warnings

Pagina Historial Weather Underground text

Diari Resum Juliol 15, 2017 Unitats:  Tant    Imperial   Mètric
« Previous Dia
SegĂźent Dia »
Diari Setmana Mensual Anual Personalitzada
  Maxima: Minima: Media:
Temperatura: 94.3 °F /  34.6 °C 75.6 °F /  24.2 °C 86.2 °F /  30.1 °C
Punt de rosada: 69.3 °F /  20.7 °C 63.3 °F /  17.4 °C 65.5 °F /  18.6 °C
Humitat: 73 % 40 % 51 %
Wind Speed: 13.8 mph /  22.2 km/h - 5.8 mph /  9.4 km/h
RĂ fegues de vent: 13.8 mph /  22.2 km/h - -
Vent:- - SSW
Pression baro: 30.1 in /  1018.8 hPa 29.9 in /  1013.8 hPa -
Precipitacions: 0 in /  0.0 mm    
Historical Graphs
 
 
Dades de taula per Juliol 15, 2017
Temps Temperatura Punt de rosada Pression baro Vent Wind Speed RĂ fegues de vent Humitat Rainfall Rate (Hourly)
00:04 76.1 °F /  24.5 °C 66.7 °F /  19.3 °C 30.1 in /  1017.8 hPa WSW 2.3 mph /  3.7 km/h 2.3 mph /  3.7 km/h 73 % 0 in /  0.0 mm
10:32 80.4 °F /  26.9 °C 68.5 °F /  20.3 °C 30.1 in /  1017.8 hPa West 2.3 mph /  3.7 km/h 2.7 mph /  4.3 km/h 67 % 0 in /  0.0 mm
10:37 80.4 °F /  26.9 °C 68 °F /  20.0 °C 30.1 in /  1018.8 hPa ESE 3.5 mph /  5.6 km/h 3.5 mph /  5.6 km/h 66 % 0 in /  0.0 mm
10:42 80.4 °F /  26.9 °C 68 °F /  20.0 °C 30.1 in /  1018.8 hPa ENE 3.5 mph /  5.6 km/h 3.5 mph /  5.6 km/h 66 % 0 in /  0.0 mm
10:47 81.3 °F /  27.4 °C 68.4 °F /  20.2 °C 30.1 in /  1018.8 hPa SSE 2.9 mph /  4.7 km/h 2.9 mph /  4.7 km/h 65 % 0 in /  0.0 mm
10:52 81.7 °F /  27.6 °C 68.4 °F /  20.2 °C 30.1 in /  1017.8 hPa ESE 3.5 mph /  5.6 km/h 3.5 mph /  5.6 km/h 64 % 0 in /  0.0 mm
10:57 82 °F /  27.8 °C 68.7 °F /  20.4 °C 30.1 in /  1017.8 hPa South 2.4 mph /  3.9 km/h 2.4 mph /  3.9 km/h 64 % 0 in /  0.0 mm
10:58 82 °F /  27.8 °C 68.7 °F /  20.4 °C 30.1 in /  1017.8 hPa South 2.4 mph /  3.9 km/h 2.4 mph /  3.9 km/h 64 % 0 in /  0.0 mm
11:03 83.1 °F /  28.4 °C 69.3 °F /  20.7 °C 30.1 in /  1017.8 hPa South 3.5 mph /  5.6 km/h 3.5 mph /  5.6 km/h 63 % 0 in /  0.0 mm
11:08 83.7 °F /  28.7 °C 69.3 °F /  20.7 °C 30.1 in /  1017.8 hPa SSE 3.8 mph /  6.1 km/h 3.8 mph /  6.1 km/h 62 % 0 in /  0.0 mm
11:13 83.3 °F /  28.5 °C 68 °F /  20.0 °C 30.1 in /  1017.8 hPa SW 5.8 mph /  9.3 km/h 5.8 mph /  9.3 km/h 60 % 0 in /  0.0 mm
11:18 84.6 °F /  29.2 °C 68.7 °F /  20.4 °C 30.1 in /  1017.8 hPa SW 6.4 mph /  10.3 km/h 6.4 mph /  10.3 km/h 59 % 0 in /  0.0 mm
11:23 84.9 °F /  29.4 °C 67.5 °F /  19.7 °C 30.1 in /  1017.8 hPa SE 6.2 mph /  10.0 km/h 6.2 mph /  10.0 km/h 56 % 0 in /  0.0 mm
11:28 85.5 °F /  29.7 °C 67.5 °F /  19.7 °C 30.1 in /  1017.8 hPa SE 4.6 mph /  7.4 km/h 4.6 mph /  7.4 km/h 55 % 0 in /  0.0 mm
11:33 85.8 °F /  29.9 °C 67.3 °F /  19.6 °C 30.1 in /  1017.8 hPa SSE 3.5 mph /  5.6 km/h 3.5 mph /  5.6 km/h 54 % 0 in /  0.0 mm
11:38 86.5 °F /  30.3 °C 67.8 °F /  19.9 °C 30 in /  1016.8 hPa East 3.5 mph /  5.6 km/h 3.5 mph /  5.6 km/h 54 % 0 in /  0.0 mm
11:43 87.1 °F /  30.6 °C 68.4 °F /  20.2 °C 30 in /  1016.8 hPa SW 2.4 mph /  3.9 km/h 2.4 mph /  3.9 km/h 54 % 0 in /  0.0 mm
11:48 87.6 °F /  30.9 °C 68.9 °F /  20.5 °C 30 in /  1016.8 hPa SW 4.3 mph /  6.9 km/h 4.3 mph /  6.9 km/h 54 % 0 in /  0.0 mm
11:53 87.1 °F /  30.6 °C 67.3 °F /  19.6 °C 30 in /  1015.8 hPa SW 5.8 mph /  9.3 km/h 5.8 mph /  9.3 km/h 52 % 0 in /  0.0 mm
11:58 87.8 °F /  31.0 °C 66.7 °F /  19.3 °C 30 in /  1015.8 hPa SW 4.3 mph /  6.9 km/h 4.3 mph /  6.9 km/h 50 % 0 in /  0.0 mm
12:00 88 °F /  31.1 °C 66.9 °F /  19.4 °C 30 in /  1015.8 hPa SW 5.8 mph /  9.3 km/h 5.8 mph /  9.3 km/h 50 % 0 in /  0.0 mm
12:05 88.3 °F /  31.3 °C 67.3 °F /  19.6 °C 30 in /  1015.8 hPa WSW 6 mph /  9.7 km/h 6 mph /  9.7 km/h 50 % 0 in /  0.0 mm
12:10 88.7 °F /  31.5 °C 67.1 °F /  19.5 °C 30 in /  1015.8 hPa SSE 3.5 mph /  5.6 km/h 3.5 mph /  5.6 km/h 49 % 0 in /  0.0 mm
12:15 89.8 °F /  32.1 °C 66.2 °F /  19.0 °C 30 in /  1015.8 hPa South 3.6 mph /  5.8 km/h 3.6 mph /  5.8 km/h 46 % 0 in /  0.0 mm
12:20 89.8 °F /  32.1 °C 66.9 °F /  19.4 °C 30 in /  1015.8 hPa SSW 3.5 mph /  5.6 km/h 3.5 mph /  5.6 km/h 47 % 0 in /  0.0 mm
12:25 89.8 °F /  32.1 °C 67.5 °F /  19.7 °C 30 in /  1015.8 hPa SSW 5.8 mph /  9.3 km/h 5.8 mph /  9.3 km/h 48 % 0 in /  0.0 mm
12:30 89.2 °F /  31.8 °C 66.9 °F /  19.4 °C 30 in /  1015.8 hPa SSW 4.6 mph /  7.4 km/h 4.6 mph /  7.4 km/h 48 % 0 in /  0.0 mm
12:35 89.6 °F /  32.0 °C 66.7 °F /  19.3 °C 30 in /  1015.8 hPa NNW 3.5 mph /  5.6 km/h 3.5 mph /  5.6 km/h 47 % 0 in /  0.0 mm
12:40 89.2 °F /  31.8 °C 65.8 °F /  18.8 °C 30 in /  1015.8 hPa SSW 6.9 mph /  11.1 km/h 6.9 mph /  11.1 km/h 46 % 0 in /  0.0 mm
12:45 88.9 °F /  31.6 °C 65.5 °F /  18.6 °C 30 in /  1015.8 hPa WNW 4.6 mph /  7.4 km/h 4.6 mph /  7.4 km/h 46 % 0 in /  0.0 mm
12:50 90 °F /  32.2 °C 65.8 °F /  18.8 °C 30 in /  1015.8 hPa SSW 3.5 mph /  5.6 km/h 3.5 mph /  5.6 km/h 45 % 0 in /  0.0 mm
12:55 91 °F /  32.8 °C 66.7 °F /  19.3 °C 30 in /  1014.8 hPa WSW 3.6 mph /  5.8 km/h 3.6 mph /  5.8 km/h 45 % 0 in /  0.0 mm
13:00 90.9 °F /  32.7 °C 66.6 °F /  19.2 °C 30 in /  1014.8 hPa South 8.1 mph /  13.0 km/h 8.1 mph /  13.0 km/h 45 % 0 in /  0.0 mm
13:05 90.1 °F /  32.3 °C 65.8 °F /  18.8 °C 30 in /  1014.8 hPa SE 3.5 mph /  5.6 km/h 3.5 mph /  5.6 km/h 45 % 0 in /  0.0 mm
13:10 91.4 °F /  33.0 °C 66.4 °F /  19.1 °C 30 in /  1015.8 hPa South 4.6 mph /  7.4 km/h 4.6 mph /  7.4 km/h 44 % 0 in /  0.0 mm
13:15 89.8 °F /  32.1 °C 65.7 °F /  18.7 °C 30 in /  1015.8 hPa West 6.4 mph /  10.3 km/h 6.4 mph /  10.3 km/h 45 % 0 in /  0.0 mm
13:20 89.8 °F /  32.1 °C 64.9 °F /  18.3 °C 30 in /  1015.8 hPa WNW 4.6 mph /  7.4 km/h 4.6 mph /  7.4 km/h 44 % 0 in /  0.0 mm
13:25 90.7 °F /  32.6 °C 65.8 °F /  18.8 °C 30 in /  1015.8 hPa SW 4.6 mph /  7.4 km/h 4.6 mph /  7.4 km/h 44 % 0 in /  0.0 mm
13:30 91 °F /  32.8 °C 66 °F /  18.9 °C 30 in /  1015.8 hPa SSW 2.6 mph /  4.2 km/h 2.6 mph /  4.2 km/h 44 % 0 in /  0.0 mm
13:35 90.9 °F /  32.7 °C 66.6 °F /  19.2 °C 30 in /  1015.8 hPa SSW 4.6 mph /  7.4 km/h 4.6 mph /  7.4 km/h 45 % 0 in /  0.0 mm
13:40 91 °F /  32.8 °C 66.7 °F /  19.3 °C 30 in /  1015.8 hPa SW 4.6 mph /  7.4 km/h 4.6 mph /  7.4 km/h 45 % 0 in /  0.0 mm
13:41 91.4 °F /  33.0 °C 66.4 °F /  19.1 °C 30 in /  1015.8 hPa East 2.3 mph /  3.7 km/h 2.3 mph /  3.7 km/h 44 % 0 in /  0.0 mm
13:46 92.1 °F /  33.4 °C 66.4 °F /  19.1 °C 30 in /  1015.8 hPa ENE 5.8 mph /  9.3 km/h 5.8 mph /  9.3 km/h 43 % 0 in /  0.0 mm
13:51 91.4 °F /  33.0 °C 66.4 °F /  19.1 °C 30 in /  1015.8 hPa ESE 3.5 mph /  5.6 km/h 3.5 mph /  5.6 km/h 44 % 0 in /  0.0 mm
13:56 91.2 °F /  32.9 °C 66.9 °F /  19.4 °C 30 in /  1015.8 hPa WSW 8.1 mph /  13.0 km/h 8.1 mph /  13.0 km/h 45 % 0 in /  0.0 mm
14:01 90 °F /  32.2 °C 65.8 °F /  18.8 °C 30 in /  1015.8 hPa South 5.8 mph /  9.3 km/h 5.8 mph /  9.3 km/h 45 % 0 in /  0.0 mm
14:06 90 °F /  32.2 °C 65.8 °F /  18.8 °C 30 in /  1015.8 hPa SSE 5.8 mph /  9.3 km/h 5.8 mph /  9.3 km/h 45 % 0 in /  0.0 mm
14:11 90.7 °F /  32.6 °C 67.1 °F /  19.5 °C 30 in /  1014.8 hPa SW 4.3 mph /  6.9 km/h 4.3 mph /  6.9 km/h 46 % 0 in /  0.0 mm
14:16 91.4 °F /  33.0 °C 67.6 °F /  19.8 °C 30 in /  1014.8 hPa SW 5.8 mph /  9.3 km/h 5.8 mph /  9.3 km/h 46 % 0 in /  0.0 mm
14:21 90.3 °F /  32.4 °C 66.7 °F /  19.3 °C 30 in /  1014.8 hPa SW 4.6 mph /  7.4 km/h 4.6 mph /  7.4 km/h 46 % 0 in /  0.0 mm
14:26 90.7 °F /  32.6 °C 67.1 °F /  19.5 °C 30 in /  1014.8 hPa WSW 9.2 mph /  14.8 km/h 9.2 mph /  14.8 km/h 46 % 0 in /  0.0 mm
14:31 90.9 °F /  32.7 °C 67.3 °F /  19.6 °C 30 in /  1014.8 hPa SW 6.9 mph /  11.1 km/h 6.9 mph /  11.1 km/h 46 % 0 in /  0.0 mm
14:36 91.6 °F /  33.1 °C 67.3 °F /  19.6 °C 30 in /  1014.8 hPa SSE 8.1 mph /  13.0 km/h 8.1 mph /  13.0 km/h 45 % 0 in /  0.0 mm
14:41 92.1 °F /  33.4 °C 67.6 °F /  19.8 °C 30 in /  1014.8 hPa WSW 2.4 mph /  3.9 km/h 2.6 mph /  4.2 km/h 45 % 0 in /  0.0 mm
14:46 92.7 °F /  33.7 °C 68.2 °F /  20.1 °C 30 in /  1014.8 hPa SW 6.4 mph /  10.3 km/h 6.4 mph /  10.3 km/h 45 % 0 in /  0.0 mm
14:51 92.5 °F /  33.6 °C 67.5 °F /  19.7 °C 30 in /  1014.8 hPa SW 11.5 mph /  18.5 km/h 11.5 mph /  18.5 km/h 44 % 0 in /  0.0 mm
14:56 92.3 °F /  33.5 °C 67.3 °F /  19.6 °C 30 in /  1014.8 hPa SSW 6.2 mph /  10.0 km/h 6.2 mph /  10.0 km/h 44 % 0 in /  0.0 mm
15:01 92.1 °F /  33.4 °C 67.1 °F /  19.5 °C 30 in /  1014.8 hPa WSW 3.1 mph /  5.0 km/h 3.1 mph /  5.0 km/h 44 % 0 in /  0.0 mm
15:06 92.1 °F /  33.4 °C 67.1 °F /  19.5 °C 30 in /  1014.8 hPa SW 10.4 mph /  16.7 km/h 10.4 mph /  16.7 km/h 44 % 0 in /  0.0 mm
15:11 92.3 °F /  33.5 °C 66.6 °F /  19.2 °C 30 in /  1014.8 hPa South 4.6 mph /  7.4 km/h 4.6 mph /  7.4 km/h 43 % 0 in /  0.0 mm
15:16 93.2 °F /  34.0 °C 67.5 °F /  19.7 °C 30 in /  1014.8 hPa West 3.5 mph /  5.6 km/h 3.5 mph /  5.6 km/h 43 % 0 in /  0.0 mm
15:21 93.7 °F /  34.3 °C 67.8 °F /  19.9 °C 30 in /  1014.8 hPa SW 3.5 mph /  5.6 km/h 3.5 mph /  5.6 km/h 43 % 0 in /  0.0 mm
15:26 93.7 °F /  34.3 °C 67.8 °F /  19.9 °C 30 in /  1015.8 hPa WSW 8.1 mph /  13.0 km/h 8.1 mph /  13.0 km/h 43 % 0 in /  0.0 mm
15:31 93.4 °F /  34.1 °C 66.9 °F /  19.4 °C 30 in /  1015.8 hPa SSW 3.5 mph /  5.6 km/h 3.8 mph /  6.1 km/h 42 % 0 in /  0.0 mm
15:36 93.9 °F /  34.4 °C 67.3 °F /  19.6 °C 30 in /  1015.8 hPa SSW 6.9 mph /  11.1 km/h 6.9 mph /  11.1 km/h 42 % 0 in /  0.0 mm
15:41 93.6 °F /  34.2 °C 66.9 °F /  19.4 °C 30 in /  1015.8 hPa SE 3.5 mph /  5.6 km/h 3.5 mph /  5.6 km/h 42 % 0 in /  0.0 mm
15:46 93 °F /  33.9 °C 66.6 °F /  19.2 °C 30 in /  1015.8 hPa SSW 4.6 mph /  7.4 km/h 4.6 mph /  7.4 km/h 42 % 0 in /  0.0 mm
15:51 93.4 °F /  34.1 °C 66.9 °F /  19.4 °C 30 in /  1015.8 hPa South 9.7 mph /  15.6 km/h 9.7 mph /  15.6 km/h 42 % 0 in /  0.0 mm
15:56 92.8 °F /  33.8 °C 66.4 °F /  19.1 °C 30 in /  1015.8 hPa South 6.9 mph /  11.1 km/h 6.9 mph /  11.1 km/h 42 % 0 in /  0.0 mm
16:01 93.4 °F /  34.1 °C 66.9 °F /  19.4 °C 30 in /  1015.8 hPa WNW 2.9 mph /  4.7 km/h 2.9 mph /  4.7 km/h 42 % 0 in /  0.0 mm
16:06 94.1 °F /  34.5 °C 67.5 °F /  19.7 °C 30 in /  1015.8 hPa WSW 3.5 mph /  5.6 km/h 3.5 mph /  5.6 km/h 42 % 0 in /  0.0 mm
16:11 94.3 °F /  34.6 °C 66.9 °F /  19.4 °C 30 in /  1014.8 hPa SW 5.8 mph /  9.3 km/h 5.8 mph /  9.3 km/h 41 % 0 in /  0.0 mm
16:16 93.7 °F /  34.3 °C 66.6 °F /  19.2 °C 30 in /  1014.8 hPa SW 9.2 mph /  14.8 km/h 9.2 mph /  14.8 km/h 41 % 0 in /  0.0 mm
16:21 93.4 °F /  34.1 °C 66.2 °F /  19.0 °C 30 in /  1014.8 hPa SW 9.2 mph /  14.8 km/h 9.2 mph /  14.8 km/h 41 % 0 in /  0.0 mm
16:26 92.8 °F /  33.8 °C 64.9 °F /  18.3 °C 30 in /  1014.8 hPa South 9.2 mph /  14.8 km/h 9.2 mph /  14.8 km/h 40 % 0 in /  0.0 mm
16:31 92.1 °F /  33.4 °C 64.2 °F /  17.9 °C 30 in /  1014.8 hPa WSW 8.1 mph /  13.0 km/h 8.1 mph /  13.0 km/h 40 % 0 in /  0.0 mm
16:36 91.6 °F /  33.1 °C 63.9 °F /  17.7 °C 30 in /  1014.8 hPa SSW 6.9 mph /  11.1 km/h 6.9 mph /  11.1 km/h 40 % 0 in /  0.0 mm
16:41 91.8 °F /  33.2 °C 64 °F /  17.8 °C 30 in /  1014.8 hPa WSW 8.1 mph /  13.0 km/h 8.1 mph /  13.0 km/h 40 % 0 in /  0.0 mm
16:46 91.9 °F /  33.3 °C 64.2 °F /  17.9 °C 30 in /  1014.8 hPa SSW 9.2 mph /  14.8 km/h 9.2 mph /  14.8 km/h 40 % 0 in /  0.0 mm
16:51 92.8 °F /  33.8 °C 65.7 °F /  18.7 °C 30 in /  1014.8 hPa SW 8.1 mph /  13.0 km/h 8.1 mph /  13.0 km/h 41 % 0 in /  0.0 mm
16:56 90.9 °F /  32.7 °C 63.9 °F /  17.7 °C 30 in /  1014.8 hPa West 10.4 mph /  16.7 km/h 10.4 mph /  16.7 km/h 41 % 0 in /  0.0 mm
17:01 91.4 °F /  33.0 °C 64.4 °F /  18.0 °C 30 in /  1014.8 hPa SSW 6.9 mph /  11.1 km/h 6.9 mph /  11.1 km/h 41 % 0 in /  0.0 mm
17:06 91.8 °F /  33.2 °C 64.8 °F /  18.2 °C 30 in /  1014.8 hPa SW 4.6 mph /  7.4 km/h 4.6 mph /  7.4 km/h 41 % 0 in /  0.0 mm
17:11 90.7 °F /  32.6 °C 63.7 °F /  17.6 °C 30 in /  1014.8 hPa West 8.1 mph /  13.0 km/h 8.1 mph /  13.0 km/h 41 % 0 in /  0.0 mm
17:12 91 °F /  32.8 °C 64.8 °F /  18.2 °C 30 in /  1014.8 hPa SSW 5.8 mph /  9.3 km/h 5.8 mph /  9.3 km/h 42 % 0 in /  0.0 mm
17:17 91.6 °F /  33.1 °C 64.6 °F /  18.1 °C 30 in /  1014.8 hPa SSW 8.1 mph /  13.0 km/h 8.1 mph /  13.0 km/h 41 % 0 in /  0.0 mm
17:22 90.9 °F /  32.7 °C 64.6 °F /  18.1 °C 30 in /  1014.8 hPa WSW 6.9 mph /  11.1 km/h 6.9 mph /  11.1 km/h 42 % 0 in /  0.0 mm
17:27 90.7 °F /  32.6 °C 64.4 °F /  18.0 °C 30 in /  1014.8 hPa South 6.9 mph /  11.1 km/h 6.9 mph /  11.1 km/h 42 % 0 in /  0.0 mm
17:32 91 °F /  32.8 °C 64.8 °F /  18.2 °C 30 in /  1014.8 hPa SSE 11.5 mph /  18.5 km/h 11.5 mph /  18.5 km/h 42 % 0 in /  0.0 mm
17:37 90 °F /  32.2 °C 63.9 °F /  17.7 °C 30 in /  1014.8 hPa SE 5.8 mph /  9.3 km/h 5.8 mph /  9.3 km/h 42 % 0 in /  0.0 mm
17:42 90 °F /  32.2 °C 63.9 °F /  17.7 °C 30 in /  1014.8 hPa South 8.1 mph /  13.0 km/h 8.1 mph /  13.0 km/h 42 % 0 in /  0.0 mm
17:47 89.2 °F /  31.8 °C 63.9 °F /  17.7 °C 30 in /  1014.8 hPa WSW 5.8 mph /  9.3 km/h 5.8 mph /  9.3 km/h 43 % 0 in /  0.0 mm
17:52 90 °F /  32.2 °C 64.6 °F /  18.1 °C 30 in /  1014.8 hPa SW 8.1 mph /  13.0 km/h 8.1 mph /  13.0 km/h 43 % 0 in /  0.0 mm
17:57 89.4 °F /  31.9 °C 64 °F /  17.8 °C 30 in /  1014.8 hPa WSW 5.8 mph /  9.3 km/h 5.8 mph /  9.3 km/h 43 % 0 in /  0.0 mm
18:02 90 °F /  32.2 °C 64.6 °F /  18.1 °C 30 in /  1014.8 hPa West 6.9 mph /  11.1 km/h 6.9 mph /  11.1 km/h 43 % 0 in /  0.0 mm
18:07 89.6 °F /  32.0 °C 64 °F /  17.8 °C 30 in /  1014.8 hPa SW 12.7 mph /  20.4 km/h 12.7 mph /  20.4 km/h 43 % 0 in /  0.0 mm
18:12 89.1 °F /  31.7 °C 63.7 °F /  17.6 °C 30 in /  1014.8 hPa SW 8.1 mph /  13.0 km/h 8.1 mph /  13.0 km/h 43 % 0 in /  0.0 mm
18:17 88.3 °F /  31.3 °C 63.7 °F /  17.6 °C 30 in /  1014.8 hPa WSW 10.4 mph /  16.7 km/h 10.4 mph /  16.7 km/h 44 % 0 in /  0.0 mm
18:22 87.6 °F /  30.9 °C 63.7 °F /  17.6 °C 30 in /  1014.8 hPa South 10.4 mph /  16.7 km/h 10.4 mph /  16.7 km/h 45 % 0 in /  0.0 mm
18:27 87.6 °F /  30.9 °C 63.7 °F /  17.6 °C 30 in /  1014.8 hPa SSW 9.2 mph /  14.8 km/h 9.2 mph /  14.8 km/h 45 % 0 in /  0.0 mm
18:32 87.4 °F /  30.8 °C 63.5 °F /  17.5 °C 30 in /  1014.8 hPa SW 13.8 mph /  22.2 km/h 13.8 mph /  22.2 km/h 45 % 0 in /  0.0 mm
18:37 87.4 °F /  30.8 °C 63.5 °F /  17.5 °C 29.9 in /  1013.8 hPa SW 11.5 mph /  18.5 km/h 11.5 mph /  18.5 km/h 45 % 0 in /  0.0 mm
18:42 87.3 °F /  30.7 °C 63.3 °F /  17.4 °C 29.9 in /  1013.8 hPa SW 9.2 mph /  14.8 km/h 9.2 mph /  14.8 km/h 45 % 0 in /  0.0 mm
18:47 86.5 °F /  30.3 °C 63.3 °F /  17.4 °C 29.9 in /  1013.8 hPa South 11.5 mph /  18.5 km/h 11.5 mph /  18.5 km/h 46 % 0 in /  0.0 mm
18:52 86.7 °F /  30.4 °C 63.5 °F /  17.5 °C 29.9 in /  1013.8 hPa SW 6.9 mph /  11.1 km/h 6.9 mph /  11.1 km/h 46 % 0 in /  0.0 mm
18:57 86.5 °F /  30.3 °C 63.9 °F /  17.7 °C 29.9 in /  1013.8 hPa North 7.8 mph /  12.6 km/h 7.8 mph /  12.6 km/h 47 % 0 in /  0.0 mm
19:02 86.9 °F /  30.5 °C 64.2 °F /  17.9 °C 29.9 in /  1013.8 hPa West 8.1 mph /  13.0 km/h 8.1 mph /  13.0 km/h 47 % 0 in /  0.0 mm
19:07 86.7 °F /  30.4 °C 64 °F /  17.8 °C 30 in /  1014.8 hPa SW 5.8 mph /  9.3 km/h 5.8 mph /  9.3 km/h 47 % 0 in /  0.0 mm
19:12 86.4 °F /  30.2 °C 64.4 °F /  18.0 °C 30 in /  1014.8 hPa SW 9.7 mph /  15.6 km/h 9.7 mph /  15.6 km/h 48 % 0 in /  0.0 mm
19:17 86.5 °F /  30.3 °C 64.6 °F /  18.1 °C 30 in /  1014.8 hPa SW 8.1 mph /  13.0 km/h 8.1 mph /  13.0 km/h 48 % 0 in /  0.0 mm
19:22 85.8 °F /  29.9 °C 63.9 °F /  17.7 °C 29.9 in /  1013.8 hPa WSW 5.8 mph /  9.3 km/h 5.8 mph /  9.3 km/h 48 % 0 in /  0.0 mm
19:25 85.6 °F /  29.8 °C 64.2 °F /  17.9 °C 29.9 in /  1013.8 hPa WSW 9.2 mph /  14.8 km/h 9.2 mph /  14.8 km/h 49 % 0 in /  0.0 mm
19:30 84.9 °F /  29.4 °C 63.7 °F /  17.6 °C 29.9 in /  1013.8 hPa South 10.4 mph /  16.7 km/h 10.4 mph /  16.7 km/h 49 % 0 in /  0.0 mm
19:35 84.7 °F /  29.3 °C 64 °F /  17.8 °C 29.9 in /  1013.8 hPa SW 9.8 mph /  15.8 km/h 9.8 mph /  15.8 km/h 50 % 0 in /  0.0 mm
19:40 84.2 °F /  29.0 °C 63.5 °F /  17.5 °C 30 in /  1014.8 hPa WSW 12.7 mph /  20.4 km/h 12.7 mph /  20.4 km/h 50 % 0 in /  0.0 mm
19:45 84 °F /  28.9 °C 64.6 °F /  18.1 °C 30 in /  1014.8 hPa WSW 8.1 mph /  13.0 km/h 8.1 mph /  13.0 km/h 52 % 0 in /  0.0 mm
19:50 84 °F /  28.9 °C 64.6 °F /  18.1 °C 30 in /  1014.8 hPa SW 6.9 mph /  11.1 km/h 6.9 mph /  11.1 km/h 52 % 0 in /  0.0 mm
19:55 83.8 °F /  28.8 °C 64.2 °F /  17.9 °C 30 in /  1014.8 hPa SW 5.8 mph /  9.3 km/h 5.8 mph /  9.3 km/h 52 % 0 in /  0.0 mm
20:00 83.5 °F /  28.6 °C 64 °F /  17.8 °C 30 in /  1014.8 hPa SSW 5.8 mph /  9.3 km/h 5.8 mph /  9.3 km/h 52 % 0 in /  0.0 mm
20:05 83.3 °F /  28.5 °C 64.4 °F /  18.0 °C 30 in /  1014.8 hPa WSW 7.6 mph /  12.2 km/h 7.6 mph /  12.2 km/h 53 % 0 in /  0.0 mm
20:10 82.8 °F /  28.2 °C 63.9 °F /  17.7 °C 30 in /  1014.8 hPa South 5.8 mph /  9.3 km/h 5.8 mph /  9.3 km/h 53 % 0 in /  0.0 mm
20:15 82.9 °F /  28.3 °C 64 °F /  17.8 °C 30 in /  1014.8 hPa WSW 2.3 mph /  3.7 km/h 2.4 mph /  3.9 km/h 53 % 0 in /  0.0 mm
20:20 82.9 °F /  28.3 °C 64 °F /  17.8 °C 30 in /  1014.8 hPa SW 6 mph /  9.7 km/h 6 mph /  9.7 km/h 53 % 0 in /  0.0 mm
20:25 82.4 °F /  28.0 °C 64 °F /  17.8 °C 30 in /  1014.8 hPa SW 9.2 mph /  14.8 km/h 9.2 mph /  14.8 km/h 54 % 0 in /  0.0 mm
20:30 82.2 °F /  27.9 °C 63.9 °F /  17.7 °C 30 in /  1014.8 hPa SSW 5.6 mph /  9.0 km/h 5.6 mph /  9.0 km/h 54 % 0 in /  0.0 mm
20:35 82 °F /  27.8 °C 64.2 °F /  17.9 °C 30 in /  1014.8 hPa WSW 5.8 mph /  9.3 km/h 5.8 mph /  9.3 km/h 55 % 0 in /  0.0 mm
20:40 81.9 °F /  27.7 °C 64 °F /  17.8 °C 30 in /  1015.8 hPa SSW 6.9 mph /  11.1 km/h 6.9 mph /  11.1 km/h 55 % 0 in /  0.0 mm
20:45 81.5 °F /  27.5 °C 63.9 °F /  17.7 °C 30 in /  1015.8 hPa SSW 6.9 mph /  11.1 km/h 6.9 mph /  11.1 km/h 55 % 0 in /  0.0 mm
20:50 81.3 °F /  27.4 °C 64 °F /  17.8 °C 30 in /  1015.8 hPa South 6.9 mph /  11.1 km/h 6.9 mph /  11.1 km/h 56 % 0 in /  0.0 mm
20:55 81 °F /  27.2 °C 64.2 °F /  17.9 °C 30 in /  1015.8 hPa SW 8.1 mph /  13.0 km/h 8.1 mph /  13.0 km/h 57 % 0 in /  0.0 mm
21:00 80.8 °F /  27.1 °C 64 °F /  17.8 °C 30 in /  1015.8 hPa WSW 8.1 mph /  13.0 km/h 8.1 mph /  13.0 km/h 57 % 0 in /  0.0 mm
21:05 80.4 °F /  26.9 °C 64.2 °F /  17.9 °C 30 in /  1015.8 hPa SW 6.9 mph /  11.1 km/h 6.9 mph /  11.1 km/h 58 % 0 in /  0.0 mm
21:10 80.2 °F /  26.8 °C 64.6 °F /  18.1 °C 30 in /  1015.8 hPa SSE 5.6 mph /  9.0 km/h 5.6 mph /  9.0 km/h 59 % 0 in /  0.0 mm
21:15 79.9 °F /  26.6 °C 64.2 °F /  17.9 °C 30 in /  1015.8 hPa SSW 6.9 mph /  11.1 km/h 6.9 mph /  11.1 km/h 59 % 0 in /  0.0 mm
21:20 79.9 °F /  26.6 °C 64.8 °F /  18.2 °C 30 in /  1015.8 hPa SSW 3.3 mph /  5.3 km/h 3.3 mph /  5.3 km/h 60 % 0 in /  0.0 mm
21:25 79.5 °F /  26.4 °C 64.4 °F /  18.0 °C 30 in /  1015.8 hPa SSW 4.6 mph /  7.4 km/h 4.6 mph /  7.4 km/h 60 % 0 in /  0.0 mm
21:30 79.3 °F /  26.3 °C 64.2 °F /  17.9 °C 30 in /  1015.8 hPa SW 8.1 mph /  13.0 km/h 8.1 mph /  13.0 km/h 60 % 0 in /  0.0 mm
21:35 79.2 °F /  26.2 °C 64.6 °F /  18.1 °C 30 in /  1015.8 hPa SW 5.8 mph /  9.3 km/h 5.8 mph /  9.3 km/h 61 % 0 in /  0.0 mm
21:40 79 °F /  26.1 °C 64.4 °F /  18.0 °C 30 in /  1015.8 hPa WSW 6.9 mph /  11.1 km/h 6.9 mph /  11.1 km/h 61 % 0 in /  0.0 mm
21:45 78.8 °F /  26.0 °C 64.2 °F /  17.9 °C 30 in /  1015.8 hPa South 4.6 mph /  7.4 km/h 4.6 mph /  7.4 km/h 61 % 0 in /  0.0 mm
21:50 78.6 °F /  25.9 °C 64.6 °F /  18.1 °C 30 in /  1015.8 hPa WSW 3.5 mph /  5.6 km/h 3.5 mph /  5.6 km/h 62 % 0 in /  0.0 mm
21:55 78.6 °F /  25.9 °C 64 °F /  17.8 °C 30 in /  1014.8 hPa SW 4.6 mph /  7.4 km/h 4.6 mph /  7.4 km/h 61 % 0 in /  0.0 mm
22:00 78.4 °F /  25.8 °C 63.9 °F /  17.7 °C 30 in /  1014.8 hPa SW 5.4 mph /  8.7 km/h 5.4 mph /  8.7 km/h 61 % 0 in /  0.0 mm
22:05 78.3 °F /  25.7 °C 64.2 °F /  17.9 °C 30 in /  1014.8 hPa SW 4 mph /  6.4 km/h 4 mph /  6.4 km/h 62 % 0 in /  0.0 mm
22:10 78.1 °F /  25.6 °C 64 °F /  17.8 °C 30 in /  1015.8 hPa SW 3.5 mph /  5.6 km/h 3.5 mph /  5.6 km/h 62 % 0 in /  0.0 mm
22:15 77.9 °F /  25.5 °C 63.9 °F /  17.7 °C 30 in /  1015.8 hPa WSW 3.5 mph /  5.6 km/h 3.5 mph /  5.6 km/h 62 % 0 in /  0.0 mm
22:20 77.9 °F /  25.5 °C 63.9 °F /  17.7 °C 30 in /  1015.8 hPa SW 3.5 mph /  5.6 km/h 3.5 mph /  5.6 km/h 62 % 0 in /  0.0 mm
22:25 77.7 °F /  25.4 °C 64 °F /  17.8 °C 30 in /  1015.8 hPa WSW 3.5 mph /  5.6 km/h 3.5 mph /  5.6 km/h 63 % 0 in /  0.0 mm
22:30 77.5 °F /  25.3 °C 63.9 °F /  17.7 °C 30 in /  1015.8 hPa SSW 2.3 mph /  3.7 km/h 2.3 mph /  3.7 km/h 63 % 0 in /  0.0 mm
22:35 77.5 °F /  25.3 °C 63.9 °F /  17.7 °C 30 in /  1015.8 hPa West 2.3 mph /  3.7 km/h 2.3 mph /  3.7 km/h 63 % 0 in /  0.0 mm
22:40 77.4 °F /  25.2 °C 64.2 °F /  17.9 °C 30 in /  1015.8 hPa WSW 3.5 mph /  5.6 km/h 3.5 mph /  5.6 km/h 64 % 0 in /  0.0 mm
22:45 77.2 °F /  25.1 °C 64 °F /  17.8 °C 30 in /  1015.8 hPa WSW 3.5 mph /  5.6 km/h 3.5 mph /  5.6 km/h 64 % 0 in /  0.0 mm
22:50 77 °F /  25.0 °C 63.9 °F /  17.7 °C 30 in /  1015.8 hPa WSW 4 mph /  6.4 km/h 4 mph /  6.4 km/h 64 % 0 in /  0.0 mm
22:55 76.8 °F /  24.9 °C 64.6 °F /  18.1 °C 30 in /  1015.8 hPa SW 2.9 mph /  4.7 km/h 2.9 mph /  4.7 km/h 66 % 0 in /  0.0 mm
23:00 76.8 °F /  24.9 °C 64.6 °F /  18.1 °C 30 in /  1015.8 hPa WSW 3.3 mph /  5.3 km/h 3.3 mph /  5.3 km/h 66 % 0 in /  0.0 mm
23:05 76.8 °F /  24.9 °C 64.6 °F /  18.1 °C 30 in /  1015.8 hPa West 2.3 mph /  3.7 km/h 2.3 mph /  3.7 km/h 66 % 0 in /  0.0 mm
23:10 76.6 °F /  24.8 °C 64.4 °F /  18.0 °C 30 in /  1015.8 hPa West 2.3 mph /  3.7 km/h 2.3 mph /  3.7 km/h 66 % 0 in /  0.0 mm
23:15 76.6 °F /  24.8 °C 64.9 °F /  18.3 °C 30 in /  1015.8 hPa WSW 2.4 mph /  3.9 km/h 2.4 mph /  3.9 km/h 67 % 0 in /  0.0 mm
23:20 76.5 °F /  24.7 °C 64.8 °F /  18.2 °C 30 in /  1015.8 hPa SW 3.5 mph /  5.6 km/h 3.5 mph /  5.6 km/h 67 % 0 in /  0.0 mm
23:25 76.3 °F /  24.6 °C 64.6 °F /  18.1 °C 30 in /  1016.8 hPa SW 3.5 mph /  5.6 km/h 3.5 mph /  5.6 km/h 67 % 0 in /  0.0 mm
23:30 76.1 °F /  24.5 °C 64.8 °F /  18.2 °C 30 in /  1016.8 hPa SW 4.6 mph /  7.4 km/h 4.6 mph /  7.4 km/h 68 % 0 in /  0.0 mm
23:35 75.9 °F /  24.4 °C 64.6 °F /  18.1 °C 30 in /  1016.8 hPa SW 3.5 mph /  5.6 km/h 3.5 mph /  5.6 km/h 68 % 0 in /  0.0 mm
23:40 75.9 °F /  24.4 °C 64.9 °F /  18.3 °C 30 in /  1016.8 hPa SSW 3.3 mph /  5.3 km/h 3.3 mph /  5.3 km/h 69 % 0 in /  0.0 mm
23:45 75.7 °F /  24.3 °C 64.8 °F /  18.2 °C 30 in /  1016.8 hPa SW 3.5 mph /  5.6 km/h 3.5 mph /  5.6 km/h 69 % 0 in /  0.0 mm
23:50 75.7 °F /  24.3 °C 64.8 °F /  18.2 °C 30 in /  1016.8 hPa SW 3.5 mph /  5.6 km/h 3.5 mph /  5.6 km/h 69 % 0 in /  0.0 mm
23:55 75.6 °F /  24.2 °C 65.1 °F /  18.4 °C 30 in /  1016.8 hPa WSW 4.6 mph /  7.4 km/h 4.6 mph /  7.4 km/h 70 % 0 in /  0.0 mm
Meteo Sesrovires
Elogis d' Weather Underground - 3.25 mb

Guio original per  Jim McMurry - jmcmurry@mwt.net Adaptat per a la plantilla per  Wim van der Kuil - Leuven-Template.eu

Trobareu la nostra informacio del temps tambe a:

Weather Underground

AWEKAS